Time;durP1;ratioP1;P1;durP2;ratioP2;P2;SDS_P1;SDS_P2;PMS_P1;PMS_P2;Temp;Humidity;BMP_temperature;BMP_pressure;BME280_temperature;BME280_humidity;BME280_pressure;Samples;Min_cycle;Max_cycle;Signal;HPM_P1;HPM_P2
2023/09/17 00:03:42;;;;;;;18.00;12.20;;;;;;;14.42;100.00;99305.70;272948;1270;22407;-87
2023/09/17 00:09:44;;;;;;;12.50;10.20;;;;;;;14.33;100.00;99302.30;273026;1270;22614;-87
2023/09/17 00:15:46;;;;;;;16.50;12.20;;;;;;;14.33;100.00;99299.31;272945;1264;23056;-87
2023/09/17 00:21:47;;;;;;;16.30;11.30;;;;;;;14.32;100.00;99299.48;272831;1270;22327;-88
2023/09/17 00:27:49;;;;;;;20.60;11.60;;;;;;;14.21;100.00;99296.76;272938;1270;23250;-87
2023/09/17 00:33:51;;;;;;;16.80;12.60;;;;;;;14.07;100.00;99293.11;272793;1270;22402;-88
2023/09/17 00:39:53;;;;;;;15.30;12.10;;;;;;;13.93;100.00;99294.20;271108;1271;22208;-86
2023/09/17 00:45:54;;;;;;;16.40;11.00;;;;;;;13.94;100.00;99289.85;269919;1270;22530;-86
2023/09/17 00:51:56;;;;;;;18.30;12.00;;;;;;;13.85;100.00;99279.31;269542;1270;22553;-87
2023/09/17 00:57:59;;;;;;;15.30;11.40;;;;;;;13.74;100.00;99289.34;269619;1270;22547;-87
2023/09/17 01:04:03;;;;;;;14.30;10.40;;;;;;;13.62;100.00;99294.33;269433;1271;22530;-87
2023/09/17 01:10:05;;;;;;;12.90;10.00;;;;;;;13.64;100.00;99300.15;271455;1272;22523;-88
2023/09/17 01:16:09;;;;;;;14.50;11.10;;;;;;;13.67;100.00;99297.80;269668;1272;22530;-87
2023/09/17 01:22:29;;;;;;;17.80;11.10;;;;;;;13.54;100.00;99294.30;269652;1272;22522;-87
2023/09/17 01:28:31;;;;;;;15.00;11.50;;;;;;;13.48;100.00;99299.23;270993;1272;22233;-87
2023/09/17 01:34:37;;;;;;;20.20;12.70;;;;;;;13.43;100.00;99294.64;272952;1278;22172;-87
2023/09/17 01:40:41;;;;;;;15.90;11.40;;;;;;;13.45;100.00;99298.73;272882;1272;22300;-87
2023/09/17 01:46:44;;;;;;;15.40;11.80;;;;;;;13.49;100.00;99300.10;272777;1272;22321;-87
2023/09/17 01:52:46;;;;;;;14.00;11.30;;;;;;;13.58;100.00;99295.58;272814;1272;22334;-87
2023/09/17 01:58:48;;;;;;;18.70;11.30;;;;;;;13.62;100.00;99292.27;272999;1270;22352;-87
2023/09/17 02:04:49;;;;;;;18.70;11.20;;;;;;;13.66;100.00;99293.56;273174;1270;23541;-88
2023/09/17 02:10:51;;;;;;;17.50;11.70;;;;;;;13.69;100.00;99286.89;273014;1270;23057;-87
2023/09/17 02:16:54;;;;;;;15.90;12.10;;;;;;;13.63;100.00;99287.42;273026;1270;22222;-87
2023/09/17 02:22:56;;;;;;;17.50;11.10;;;;;;;13.62;100.00;99284.73;273164;1270;22202;-87
2023/09/17 02:28:58;;;;;;;15.80;11.60;;;;;;;13.65;100.00;99277.82;273109;1264;22331;-86
2023/09/17 02:35:00;;;;;;;20.80;12.50;;;;;;;13.60;100.00;99282.84;272885;1270;22314;-87
2023/09/17 02:41:03;;;;;;;14.90;10.50;;;;;;;13.51;100.00;99278.33;272944;1270;22347;-87
2023/09/17 02:47:05;;;;;;;15.30;11.90;;;;;;;13.50;100.00;99274.79;272914;1270;22467;-86
2023/09/17 02:53:07;;;;;;;20.20;12.50;;;;;;;13.42;100.00;99281.60;273034;1270;22172;-87
2023/09/17 02:59:09;;;;;;;19.40;13.20;;;;;;;13.25;100.00;99287.25;272671;1270;22201;-87
2023/09/17 03:05:12;;;;;;;14.00;11.00;;;;;;;13.18;100.00;99287.22;272837;1270;23208;-86
2023/09/17 03:11:15;;;;;;;14.00;11.10;;;;;;;13.17;100.00;99286.90;272972;1270;22447;-87
2023/09/17 03:17:19;;;;;;;18.40;11.90;;;;;;;13.18;100.00;99282.50;273004;1270;23398;-86
2023/09/17 03:23:21;;;;;;;17.80;12.90;;;;;;;13.12;100.00;99284.44;273119;1270;22318;-87
2023/09/17 03:29:24;;;;;;;14.40;10.70;;;;;;;13.05;100.00;99286.44;271560;1270;23603;-87
2023/09/17 03:35:26;;;;;;;16.30;11.60;;;;;;;13.06;100.00;99285.51;272971;1270;22220;-87
2023/09/17 03:41:28;;;;;;;15.00;11.30;;;;;;;13.08;100.00;99281.98;272946;1270;22980;-87
2023/09/17 03:47:30;;;;;;;16.70;11.10;;;;;;;13.08;100.00;99279.62;273024;1270;22336;-86
2023/09/17 03:53:32;;;;;;;19.70;12.90;;;;;;;13.12;100.00;99284.83;273029;1270;22214;-87
2023/09/17 03:59:34;;;;;;;18.00;11.40;;;;;;;13.11;100.00;99279.71;273012;1270;22210;-85
2023/09/17 04:05:36;;;;;;;16.60;12.00;;;;;;;13.13;100.00;99286.40;272975;1270;23019;-86
2023/09/17 04:11:38;;;;;;;16.00;12.20;;;;;;;13.15;100.00;99281.95;273015;1270;22178;-86
2023/09/17 04:17:40;;;;;;;18.30;11.80;;;;;;;13.13;100.00;99283.42;273119;1271;22334;-87
2023/09/17 04:23:42;;;;;;;19.00;12.10;;;;;;;13.07;100.00;99285.66;273209;1270;22194;-87
2023/09/17 04:29:43;;;;;;;17.20;12.10;;;;;;;13.10;100.00;99283.64;273047;1271;22207;-87
2023/09/17 04:35:45;;;;;;;23.10;12.00;;;;;;;13.13;100.00;99291.91;272919;1270;22314;-87
2023/09/17 04:41:48;;;;;;;18.00;11.50;;;;;;;13.08;100.00;99294.30;272941;1270;22324;-87
2023/09/17 04:47:51;;;;;;;17.70;12.70;;;;;;;13.05;100.00;99301.20;272996;1270;23089;-86
2023/09/17 04:53:53;;;;;;;18.60;12.50;;;;;;;13.10;100.00;99304.38;272972;1270;22323;-87
2023/09/17 04:59:55;;;;;;;20.40;12.50;;;;;;;13.15;100.00;99310.61;271596;1271;22309;-86
2023/09/17 05:05:57;;;;;;;21.10;13.00;;;;;;;13.26;100.00;99318.52;272857;1271;22309;-86
2023/09/17 05:11:59;;;;;;;21.10;13.50;;;;;;;13.39;100.00;99316.79;272988;1270;22366;-88
2023/09/17 05:18:06;;;;;;;21.60;14.20;;;;;;;13.46;100.00;99311.23;273167;1271;22215;-86
2023/09/17 05:24:08;;;;;;;18.50;13.70;;;;;;;13.53;100.00;99320.23;270211;1271;22540;-87
2023/09/17 05:30:12;;;;;;;23.10;14.90;;;;;;;13.62;100.00;99331.19;269787;1270;22536;-86
2023/09/17 05:36:13;;;;;;;24.40;16.70;;;;;;;13.76;100.00;99333.98;269993;1270;22549;-87
2023/09/17 05:42:15;;;;;;;22.80;15.60;;;;;;;13.88;100.00;99339.69;271081;1270;22559;-86
2023/09/17 05:48:17;;;;;;;27.00;16.90;;;;;;;14.00;100.00;99341.08;269606;1270;22678;-88
2023/09/17 05:54:21;;;;;;;23.50;16.60;;;;;;;14.13;100.00;99338.19;263418;1270;10001825;-87
2023/09/17 06:00:23;;;;;;;21.00;14.20;;;;;;;14.26;100.00;99343.90;272646;1272;22184;-89
2023/09/17 06:06:25;;;;;;;21.10;14.80;;;;;;;14.39;100.00;99351.80;272668;1271;22321;-88
2023/09/17 06:12:26;;;;;;;20.30;15.00;;;;;;;14.54;100.00;99357.58;272715;1270;22349;-88
2023/09/17 06:18:32;;;;;;;20.30;14.40;;;;;;;14.71;100.00;99358.69;272550;1272;22194;-88
2023/09/17 06:24:34;;;;;;;24.20;16.30;;;;;;;14.87;100.00;99355.07;272663;1272;22634;-88
2023/09/17 06:30:36;;;;;;;26.60;18.10;;;;;;;15.05;100.00;99352.68;272814;1272;22312;-89
2023/09/17 06:36:38;;;;;;;25.30;16.00;;;;;;;15.26;100.00;99350.20;272852;1272;22341;-87
2023/09/17 06:42:40;;;;;;;23.30;17.50;;;;;;;15.46;100.00;99345.29;272838;1272;22208;-87
2023/09/17 06:48:44;;;;;;;20.30;16.50;;;;;;;15.68;100.00;99348.84;272689;1270;22918;-87
2023/09/17 06:54:49;;;;;;;25.40;16.70;;;;;;;16.02;100.00;99350.29;272497;1272;22273;-87
2023/09/17 07:00:50;;;;;;;21.70;15.10;;;;;;;16.36;100.00;99348.42;272946;1270;22392;-87
2023/09/17 07:06:52;;;;;;;19.00;14.10;;;;;;;16.74;100.00;99343.90;271106;1270;22233;-87
2023/09/17 07:12:54;;;;;;;16.10;12.00;;;;;;;17.15;100.00;99346.77;271311;1270;22550;-88
2023/09/17 07:19:18;;;;;;;15.40;12.00;;;;;;;17.53;100.00;99352.64;272453;1272;22183;-87
2023/09/17 07:25:20;;;;;;;13.20;9.70;;;;;;;17.91;100.00;99358.93;272759;1258;88759;-86
2023/09/17 07:31:21;;;;;;;11.50;9.70;;;;;;;18.32;100.00;99356.17;272949;1270;23422;-86
2023/09/17 07:37:23;;;;;;;12.20;8.80;;;;;;;18.76;100.00;99359.40;273189;1270;23171;-86
2023/09/17 07:43:25;;;;;;;13.00;8.90;;;;;;;19.19;100.00;99361.84;272976;1270;22405;-86
2023/09/17 07:49:28;;;;;;;11.80;7.60;;;;;;;19.59;100.00;99362.22;271947;1270;22405;-86
2023/09/17 07:55:30;;;;;;;10.00;7.30;;;;;;;20.11;100.00;99363.06;272616;1270;24265;-87
2023/09/17 08:01:32;;;;;;;10.00;7.10;;;;;;;20.61;100.00;99367.45;272568;1270;23028;-87
2023/09/17 08:07:35;;;;;;;9.00;6.60;;;;;;;21.05;100.00;99373.54;272945;1270;22431;-86
2023/09/17 08:13:37;;;;;;;10.20;6.60;;;;;;;21.39;100.00;99371.65;272884;1270;23210;-86
2023/09/17 08:19:42;;;;;;;7.20;5.80;;;;;;;21.69;100.00;99369.02;272405;1269;22644;-87
2023/09/17 08:25:44;;;;;;;7.00;5.70;;;;;;;21.92;100.00;99359.38;273043;1270;24027;-86
2023/09/17 08:31:47;;;;;;;6.40;5.30;;;;;;;22.06;100.00;99361.59;273179;1272;22351;-86
2023/09/17 08:37:51;;;;;;;6.40;5.10;;;;;;;22.31;100.00;99362.89;272387;1272;22381;-87
2023/09/17 08:43:54;;;;;;;7.50;4.90;;;;;;;22.59;100.00;99359.90;272536;1264;22337;-86
2023/09/17 08:49:56;;;;;;;5.20;4.60;;;;;;;22.92;100.00;99356.50;272900;1272;22224;-86
2023/09/17 08:55:59;;;;;;;5.50;4.20;;;;;;;23.28;100.00;99353.41;272451;1271;22397;-86
2023/09/17 09:02:05;;;;;;;6.70;4.10;;;;;;;23.80;100.00;99353.94;272819;1264;22464;-87
2023/09/17 09:08:07;;;;;;;;;;;;;;;24.47;100.00;99352.41;272941;1270;22438;-87
2023/09/17 09:14:09;;;;;;;7.50;3.80;;;;;;;25.34;99.55;99350.42;272256;1272;25592;-87
2023/09/17 09:20:11;;;;;;;3.70;2.60;;;;;;;26.18;96.73;99352.95;272768;1271;22389;-88
2023/09/17 09:26:14;;;;;;;4.40;3.20;;;;;;;26.75;93.81;99350.26;272856;1271;22240;-88
2023/09/17 09:32:18;;;;;;;7.80;2.70;;;;;;;26.70;90.37;99354.68;273161;1270;22228;-87
2023/09/17 09:38:20;;;;;;;2.40;2.20;;;;;;;26.55;90.93;99354.59;272898;1273;22184;-87
2023/09/17 09:44:25;;;;;;;3.10;1.90;;;;;;;27.37;88.06;99354.57;273196;1274;22185;-87
2023/09/17 09:50:30;;;;;;;2.00;1.80;;;;;;;28.08;81.94;99347.11;272709;1271;23603;-87
2023/09/17 09:56:32;;;;;;;2.30;1.80;;;;;;;28.74;78.46;99341.16;272763;1271;22275;-89
2023/09/17 10:02:33;;;;;;;2.20;1.60;;;;;;;29.37;75.91;99329.35;272229;1258;23612;-88
2023/09/17 10:08:39;;;;;;;3.40;1.70;;;;;;;29.88;73.11;99328.36;272715;1271;22545;-88
2023/09/17 10:14:41;;;;;;;1.70;1.30;;;;;;;30.54;69.80;99324.36;272848;1271;22219;-87
2023/09/17 10:20:44;;;;;;;1.60;1.50;;;;;;;30.61;65.97;99321.59;272896;1271;23551;-86
2023/09/17 10:26:46;;;;;;;1.40;1.30;;;;;;;30.60;64.41;99324.36;272986;1270;22584;-86
2023/09/17 10:32:47;;;;;;;2.10;1.20;;;;;;;31.16;61.16;99324.23;272749;1270;22222;-86
2023/09/17 10:38:52;;;;;;;1.60;1.20;;;;;;;31.61;59.73;99320.96;273040;1270;23647;-87
2023/09/17 10:44:57;;;;;;;2.20;1.50;;;;;;;31.54;58.41;99318.68;272492;1269;23522;-87
2023/09/17 10:51:00;;;;;;;2.80;1.30;;;;;;;30.80;57.35;99310.98;272953;1270;24438;-86
2023/09/17 10:57:16;;;;;;;3.20;1.60;;;;;;;29.91;56.44;99310.89;273282;1270;22452;-86
2023/09/17 11:03:22;;;;;;;1.70;1.50;;;;;;;28.91;54.42;99310.63;272969;1270;22567;-86
2023/09/17 11:09:25;;;;;;;1.80;1.40;;;;;;;28.45;55.08;99305.69;273144;1270;22319;-87
2023/09/17 11:15:27;;;;;;;1.80;1.50;;;;;;;28.57;54.65;99303.48;272237;1270;300721;-86
2023/09/17 11:21:28;;;;;;;1.70;1.40;;;;;;;28.40;54.62;99303.86;273046;1270;22424;-87
2023/09/17 11:27:44;;;;;;;1.70;1.40;;;;;;;27.97;54.80;99307.86;271821;1269;22964;-85
2023/09/17 11:33:48;;;;;;;2.20;1.70;;;;;;;27.44;55.76;99311.19;273028;1259;22361;-86
2023/09/17 11:39:50;;;;;;;2.20;1.60;;;;;;;27.00;56.46;99312.65;273212;1266;22187;-87
2023/09/17 11:45:53;;;;;;;2.60;1.60;;;;;;;26.68;56.95;99311.89;272964;1265;23405;-89
2023/09/17 11:51:57;;;;;;;2.70;2.20;;;;;;;26.49;57.58;99305.64;272966;1270;22218;-91
2023/09/17 11:58:17;;;;;;;2.70;1.70;;;;;;;26.32;58.09;99304.77;272980;1270;22196;-88
2023/09/17 12:04:23;;;;;;;4.30;1.70;;;;;;;26.04;58.85;99296.46;272823;1269;22388;-88
2023/09/17 12:10:28;;;;;;;2.20;2.00;;;;;;;25.69;60.33;99294.13;272761;1269;22414;-88
2023/09/17 12:16:31;;;;;;;2.40;1.80;;;;;;;25.45;61.57;99286.27;273067;1270;22433;-88
2023/09/17 12:22:33;;;;;;;2.50;2.00;;;;;;;25.24;63.01;99280.58;272412;1270;22530;-88
2023/09/17 12:28:35;;;;;;;3.20;2.30;;;;;;;25.21;63.43;99276.25;273237;1269;23516;-87
2023/09/17 12:34:38;;;;;;;2.40;2.20;;;;;;;25.42;62.60;99269.77;272802;1270;23460;-88
2023/09/17 12:40:41;;;;;;;3.60;2.40;;;;;;;25.54;61.87;99267.14;272831;1266;23849;-89
2023/09/17 12:46:43;;;;;;;3.20;2.10;;;;;;;25.50;61.07;99264.64;272892;1268;22439;-87
2023/09/17 12:52:45;;;;;;;1.90;1.50;;;;;;;25.48;60.88;99263.30;272795;1271;23562;-87
2023/09/17 12:58:50;;;;;;;2.60;2.10;;;;;;;25.46;60.99;99258.33;273173;1271;22990;-90
2023/09/17 13:04:52;;;;;;;4.00;1.80;;;;;;;25.36;61.08;99258.87;272620;1270;22384;-88
2023/09/17 13:10:57;;;;;;;2.80;2.10;;;;;;;25.31;60.55;99259.50;273105;1270;23047;-87
2023/09/17 13:16:59;;;;;;;6.10;2.00;;;;;;;25.31;59.84;99258.59;272459;1269;23784;-87
2023/09/17 13:23:01;;;;;;;4.10;1.90;;;;;;;25.33;59.60;99253.97;272878;1271;22386;-87
2023/09/17 13:29:04;;;;;;;3.20;2.00;;;;;;;25.17;59.52;99257.23;273165;1270;22382;-87
2023/09/17 13:35:10;;;;;;;2.00;1.70;;;;;;;25.00;59.07;99260.14;273107;1260;22352;-88
2023/09/17 13:41:16;;;;;;;;;;;;;;;24.87;59.38;99255.34;272234;1271;22984;-88
2023/09/17 13:47:18;;;;;;;2.00;1.80;;;;;;;24.63;60.67;99252.94;273090;1269;23595;-87
2023/09/17 13:53:21;;;;;;;4.90;1.90;;;;;;;24.51;61.59;99250.72;272946;1270;22188;-87
2023/09/17 13:59:23;;;;;;;2.80;1.70;;;;;;;24.53;61.35;99252.51;272963;1271;22210;-88
2023/09/17 14:05:25;;;;;;;2.90;1.80;;;;;;;24.66;61.50;99248.77;272892;1272;22194;-87
2023/09/17 14:11:27;;;;;;;2.80;1.90;;;;;;;24.80;60.44;99242.73;271958;1270;23247;-87
2023/09/17 14:17:29;;;;;;;1.80;1.70;;;;;;;24.98;60.01;99237.58;273027;1270;23213;-88
2023/09/17 14:23:30;;;;;;;4.00;2.00;;;;;;;25.05;60.41;99242.86;272880;1270;22211;-88
2023/09/17 14:29:32;;;;;;;4.20;1.80;;;;;;;25.00;59.35;99242.11;272207;1269;22637;-88
2023/09/17 14:35:34;;;;;;;2.40;1.80;;;;;;;24.91;59.30;99246.91;272929;1269;22400;-88
2023/09/17 14:41:37;;;;;;;3.90;1.90;;;;;;;24.78;60.51;99251.55;272510;1269;23645;-88
2023/09/17 14:47:39;;;;;;;1.50;1.40;;;;;;;24.60;60.76;99248.81;272331;1269;22418;-88
2023/09/17 14:53:41;;;;;;;2.10;1.80;;;;;;;24.45;61.23;99250.08;272019;1269;24275;-87
2023/09/17 14:59:42;;;;;;;2.00;1.80;;;;;;;24.33;62.15;99251.73;271295;1269;22441;-87
2023/09/17 15:05:44;;;;;;;2.10;1.80;;;;;;;24.23;63.34;99249.64;271914;1269;25071;-87
2023/09/17 15:11:47;;;;;;;2.70;2.00;;;;;;;24.12;64.52;99244.24;271433;1269;24233;-87
2023/09/17 15:17:49;;;;;;;2.60;2.00;;;;;;;24.05;65.43;99246.92;271239;1269;22222;-87
2023/09/17 15:23:50;;;;;;;2.60;1.80;;;;;;;24.17;64.37;99241.25;271385;1269;22376;-86
2023/09/17 15:29:52;;;;;;;2.20;2.00;;;;;;;24.24;65.07;99241.21;273130;1271;22243;-88
2023/09/17 15:35:54;;;;;;;2.70;2.40;;;;;;;24.19;65.73;99238.77;271263;1271;22431;-87
2023/09/17 15:41:57;;;;;;;3.10;2.40;;;;;;;24.16;65.50;99233.91;271924;1270;22441;-87
2023/09/17 15:47:59;;;;;;;2.70;1.90;;;;;;;24.15;65.48;99232.08;273121;1272;22654;-87
2023/09/17 15:54:01;;;;;;;4.20;2.30;;;;;;;24.02;66.75;99235.45;272837;1272;22465;-87
2023/09/17 16:00:03;;;;;;;2.30;2.10;;;;;;;23.80;67.74;99237.50;273041;1272;22501;-87
2023/09/17 16:46:53;;;;;;;6.50;3.60;;;;;;;22.07;76.69;99235.63;273242;1277;23034;-87
2023/09/17 19:07:07;;;;;;;8.80;5.80;;;;;;;17.93;94.99;99309.21;271548;1274;23269;-87
2023/09/17 19:13:09;;;;;;;8.50;5.90;;;;;;;17.85;95.24;99311.23;270936;1275;22290;-87
2023/09/17 19:19:11;;;;;;;7.60;5.90;;;;;;;17.66;95.47;99311.93;272108;1275;22236;-87
2023/09/17 19:25:14;;;;;;;7.70;5.90;;;;;;;17.53;96.26;99313.74;272115;1275;22436;-87
2023/09/17 19:31:15;;;;;;;15.00;8.80;;;;;;;17.47;96.78;99309.95;265212;1272;10001746;-87
2023/09/17 19:37:18;;;;;;;11.80;8.70;;;;;;;17.40;97.64;99311.82;272522;1270;22605;-86
2023/09/17 19:43:20;;;;;;;11.60;9.00;;;;;;;17.32;97.88;99310.79;271407;1270;22381;-86
2023/09/17 19:49:22;;;;;;;10.10;7.90;;;;;;;17.20;98.30;99310.05;273211;1272;22462;-87
2023/09/17 19:55:24;;;;;;;10.60;8.20;;;;;;;17.10;98.73;99306.92;273204;1272;22320;-87
2023/09/17 20:01:31;;;;;;;9.70;7.50;;;;;;;17.06;99.30;99301.42;273288;1272;23116;-86
2023/09/17 20:07:34;;;;;;;11.50;7.60;;;;;;;16.97;99.54;99297.96;273090;1271;22381;-86
2023/09/17 20:13:36;;;;;;;10.30;8.30;;;;;;;16.82;99.69;99299.14;273071;1271;22236;-86
2023/09/17 20:19:47;;;;;;;;;;;;;;;16.68;99.95;99291.92;272779;1272;22590;-87
2023/09/17 20:26:27;;;;;;;12.60;8.60;;;;;;;16.51;100.00;99288.73;273111;1272;22399;-86
2023/09/17 20:32:57;;;;;;;17.00;7.50;;;;;;;16.40;100.00;99291.80;272692;1271;23400;-88
2023/09/17 20:39:21;;;;;;;15.50;9.40;;;;;;;16.30;100.00;99292.42;273137;1276;23319;-86
2023/09/17 20:45:31;;;;;;;9.40;7.30;;;;;;;16.26;100.00;99286.30;272422;1272;22443;-86
2023/09/17 20:51:56;;;;;;;;;;;;;;;;;;;;;
2023/09/17 20:58:16;;;;;;;8.80;6.90;;;;;;;16.08;100.00;99283.35;273041;1270;22441;-86
2023/09/17 21:04:55;;;;;;;12.00;8.20;;;;;;;15.97;100.00;99287.12;273155;1272;22403;-86
2023/09/17 21:11:21;;;;;;;10.00;7.60;;;;;;;15.90;100.00;99287.23;272837;1274;22404;-87
2023/09/17 21:17:35;;;;;;;12.60;8.10;;;;;;;15.89;100.00;99288.20;272758;1271;23050;-86
2023/09/17 21:23:38;;;;;;;8.80;6.80;;;;;;;15.89;100.00;99292.92;273232;1270;23303;-86
2023/09/17 21:29:39;;;;;;;9.70;6.80;;;;;;;15.85;100.00;99293.10;272739;1270;22381;-86
2023/09/17 21:35:41;;;;;;;9.30;7.20;;;;;;;15.76;100.00;99288.17;273045;1271;22415;-86
2023/09/17 21:41:43;;;;;;;9.20;6.90;;;;;;;15.72;100.00;99287.89;272483;1270;22560;-86
2023/09/17 21:47:45;;;;;;;10.00;6.40;;;;;;;15.66;100.00;99284.36;270003;1272;22588;-85
2023/09/17 21:53:48;;;;;;;8.90;6.80;;;;;;;15.61;100.00;99276.27;270230;1270;25371;-86
2023/09/17 21:59:50;;;;;;;14.00;7.20;;;;;;;15.53;100.00;99266.77;272580;1270;22183;-86
2023/09/17 22:05:51;;;;;;;13.70;7.40;;;;;;;15.46;100.00;99258.69;270761;1270;25393;-86
2023/09/17 22:11:53;;;;;;;10.10;6.70;;;;;;;15.47;100.00;99254.02;270369;1270;22443;-86
2023/09/17 22:17:55;;;;;;;8.90;6.30;;;;;;;15.44;100.00;99251.27;271907;1270;22436;-86
2023/09/17 22:23:57;;;;;;;9.00;7.30;;;;;;;15.34;100.00;99252.79;272514;1270;22433;-86
2023/09/17 22:29:58;;;;;;;13.30;8.40;;;;;;;15.26;100.00;99249.11;273141;1270;22427;-86
2023/09/17 22:36:04;;;;;;;9.70;6.30;;;;;;;15.20;100.00;99244.00;272084;1270;22500;-86
2023/09/17 22:42:06;;;;;;;10.70;6.50;;;;;;;15.18;100.00;99242.45;271126;1270;22552;-87
2023/09/17 22:48:08;;;;;;;10.90;6.70;;;;;;;15.19;100.00;99239.92;271926;1269;23122;-86
2023/09/17 22:54:10;;;;;;;11.10;8.00;;;;;;;15.13;100.00;99240.56;273090;1270;22396;-88
2023/09/17 23:00:13;;;;;;;9.20;6.70;;;;;;;15.07;100.00;99241.06;273085;1271;22432;-86
2023/09/17 23:06:15;;;;;;;13.40;8.70;;;;;;;14.97;100.00;99249.43;273062;1270;22402;-86
2023/09/17 23:12:17;;;;;;;15.40;8.20;;;;;;;14.91;100.00;99246.45;273096;1269;22187;-86
2023/09/17 23:18:19;;;;;;;9.50;7.50;;;;;;;14.84;100.00;99241.52;272908;1261;154316;-86
2023/09/17 23:24:22;;;;;;;14.80;8.80;;;;;;;14.78;100.00;99240.89;273072;1270;22215;-86
2023/09/17 23:30:25;;;;;;;12.70;7.90;;;;;;;14.76;100.00;99237.36;273073;1270;22176;-86
2023/09/17 23:36:29;;;;;;;12.80;9.00;;;;;;;14.78;100.00;99233.02;272536;1270;23179;-86
2023/09/17 23:42:31;;;;;;;9.80;6.80;;;;;;;14.80;100.00;99236.80;272342;1270;22189;-86
2023/09/17 23:48:41;;;;;;;11.80;8.70;;;;;;;14.82;100.00;99247.02;273164;1270;22466;-90
2023/09/17 23:54:43;;;;;;;13.00;8.40;;;;;;;14.79;100.00;99247.42;273204;1257;22310;-86
